createdAt,value
2022-08-16T00:00:20.417Z,25.02
2022-08-16T00:01:07.487Z,24.97
2022-08-16T00:02:12.954Z,24.96
2022-08-16T00:03:07.413Z,24.99
2022-08-16T00:04:07.333Z,25.03
2022-08-16T00:05:07.301Z,25.04
2022-08-16T00:06:07.539Z,25.05
2022-08-16T00:07:07.421Z,25.07
2022-08-16T00:08:07.101Z,25.11
2022-08-16T00:09:07.380Z,25.14
2022-08-16T00:10:07.301Z,25.18
2022-08-16T00:11:07.240Z,25.18
2022-08-16T00:12:07.362Z,25.18
2022-08-16T00:13:07.310Z,25.22
2022-08-16T00:14:08.586Z,25.23
2022-08-16T00:15:11.650Z,25.26
2022-08-16T00:17:05.646Z,25.26
2022-08-16T00:17:16.285Z,25.28
2022-08-16T00:18:06.689Z,25.27
2022-08-16T00:19:07.465Z,25.30
2022-08-16T00:20:07.441Z,25.28
2022-08-16T00:21:07.222Z,25.28
2022-08-16T00:22:13.324Z,25.28
2022-08-16T00:23:07.225Z,25.29
2022-08-16T00:24:11.500Z,25.29
2022-08-16T00:25:07.270Z,25.34
2022-08-16T00:26:35.446Z,25.33
2022-08-16T00:27:06.918Z,25.33
2022-08-16T00:28:06.760Z,25.34
2022-08-16T00:29:06.996Z,25.36
2022-08-16T00:30:08.530Z,25.33
2022-08-16T00:31:07.232Z,25.36
2022-08-16T00:32:07.575Z,25.37
2022-08-16T00:33:08.299Z,25.39
2022-08-16T00:34:07.559Z,25.41
2022-08-16T00:35:15.244Z,25.40
2022-08-16T00:36:06.858Z,25.40
2022-08-16T00:37:07.202Z,25.41
2022-08-16T00:38:41.092Z,25.42
2022-08-16T00:39:07.306Z,25.41
2022-08-16T00:40:07.196Z,25.40
2022-08-16T00:41:07.768Z,25.40
2022-08-16T00:42:10.135Z,25.41
2022-08-16T00:43:11.810Z,25.41
2022-08-16T00:44:07.233Z,25.45
2022-08-16T00:45:08.513Z,25.46
2022-08-16T00:46:33.078Z,25.48
2022-08-16T00:47:07.553Z,25.48
2022-08-16T00:48:31.328Z,25.51
2022-08-16T00:49:07.370Z,25.53
2022-08-16T00:50:11.506Z,25.54
2022-08-16T00:51:07.218Z,25.58
2022-08-16T00:52:30.137Z,25.60
2022-08-16T00:53:07.582Z,25.62
2022-08-16T00:54:07.064Z,25.65
2022-08-16T00:55:08.351Z,25.69
2022-08-16T00:56:07.189Z,25.70
2022-08-16T00:57:07.051Z,25.71
2022-08-16T00:58:13.080Z,25.70
2022-08-16T00:59:07.310Z,25.71
2022-08-16T01:00:08.207Z,25.71
2022-08-16T01:01:08.500Z,25.72
2022-08-16T01:02:30.779Z,25.71
2022-08-16T01:03:07.376Z,25.71
2022-08-16T01:04:07.201Z,25.72
2022-08-16T01:05:10.608Z,25.70
2022-08-16T01:06:40.219Z,25.70
2022-08-16T01:07:07.132Z,25.71
2022-08-16T01:08:35.418Z,25.71
2022-08-16T01:09:06.981Z,25.67
2022-08-16T01:10:16.455Z,25.65
2022-08-16T01:11:07.045Z,25.63
2022-08-16T01:12:08.482Z,25.62
2022-08-16T01:13:07.992Z,25.63
2022-08-16T01:14:07.413Z,25.64
2022-08-16T01:15:07.751Z,25.62
2022-08-16T01:16:10.287Z,25.59
2022-08-16T01:17:07.013Z,25.57
2022-08-16T01:18:07.428Z,25.56
2022-08-16T01:19:07.086Z,25.55
2022-08-16T01:20:23.484Z,25.55
2022-08-16T01:21:07.377Z,25.54
2022-08-16T01:22:48.425Z,25.54
2022-08-16T01:23:08.762Z,25.52
2022-08-16T01:24:44.402Z,25.48
2022-08-16T01:25:07.507Z,25.46
2022-08-16T01:26:35.394Z,25.44
2022-08-16T01:27:07.075Z,25.40
2022-08-16T01:28:06.976Z,25.39
2022-08-16T01:29:06.873Z,25.37
2022-08-16T01:30:20.072Z,25.35
2022-08-16T01:31:07.209Z,25.34
2022-08-16T01:32:07.348Z,25.33
2022-08-16T01:33:14.642Z,25.32
2022-08-16T01:34:07.262Z,25.29
2022-08-16T01:35:07.196Z,25.27
2022-08-16T01:36:09.405Z,25.28
2022-08-16T01:37:07.469Z,25.27
2022-08-16T01:38:07.049Z,25.26
2022-08-16T01:39:07.703Z,25.26
2022-08-16T01:40:07.621Z,25.28
2022-08-16T01:41:07.372Z,25.29
2022-08-16T01:42:12.166Z,25.31
2022-08-16T01:43:09.512Z,25.32
2022-08-16T01:44:06.829Z,25.32
2022-08-16T01:45:07.087Z,25.34
2022-08-16T01:46:37.748Z,25.33
2022-08-16T01:47:07.007Z,25.35
2022-08-16T01:48:19.639Z,25.35
2022-08-16T01:49:07.377Z,25.37
2022-08-16T01:50:42.711Z,25.38
2022-08-16T01:51:16.758Z,25.36
2022-08-16T01:52:07.343Z,25.36
2022-08-16T01:53:07.522Z,25.38
2022-08-16T01:54:07.507Z,25.38
2022-08-16T01:55:07.173Z,25.38
2022-08-16T01:56:06.882Z,25.36
2022-08-16T01:57:07.288Z,25.37
2022-08-16T01:58:07.154Z,25.37
2022-08-16T01:59:07.071Z,25.38
2022-08-16T02:00:10.434Z,25.38
2022-08-16T02:01:08.180Z,25.38
2022-08-16T02:02:26.675Z,25.40
2022-08-16T02:03:07.447Z,25.42
2022-08-16T02:04:10.895Z,25.42
2022-08-16T02:05:07.529Z,25.39
2022-08-16T02:06:08.002Z,25.41
2022-08-16T02:07:07.408Z,25.42
2022-08-16T02:08:07.287Z,25.43
2022-08-16T02:09:07.262Z,25.44
2022-08-16T02:10:07.007Z,25.45
2022-08-16T02:11:07.306Z,25.43
2022-08-16T02:12:50.188Z,25.41
2022-08-16T02:13:07.774Z,25.39
2022-08-16T02:14:07.128Z,25.41
2022-08-16T02:15:07.110Z,25.40
2022-08-16T02:16:07.311Z,25.40
2022-08-16T02:17:06.909Z,25.42
2022-08-16T02:18:07.556Z,25.42
2022-08-16T02:19:16.138Z,25.41
2022-08-16T02:20:11.366Z,25.42
2022-08-16T02:21:07.497Z,25.37
2022-08-16T02:22:08.862Z,25.33
2022-08-16T02:23:07.647Z,25.32
2022-08-16T02:24:32.024Z,25.29
2022-08-16T02:25:06.974Z,25.27
2022-08-16T02:26:07.590Z,25.23
2022-08-16T02:27:07.063Z,25.22
2022-08-16T02:28:07.293Z,25.20
2022-08-16T02:29:07.119Z,25.20
2022-08-16T02:30:07.936Z,25.18
2022-08-16T02:31:07.102Z,25.16
2022-08-16T02:32:49.850Z,25.11
2022-08-16T02:33:09.886Z,25.08
2022-08-16T02:34:07.657Z,25.06
2022-08-16T02:35:06.875Z,25.01
2022-08-16T02:36:07.099Z,25.01
2022-08-16T02:37:07.601Z,24.96
2022-08-16T02:38:08.814Z,24.92
2022-08-16T02:39:07.583Z,24.81
2022-08-16T02:40:07.881Z,24.77
2022-08-16T02:41:09.663Z,24.70
2022-08-16T02:42:06.907Z,24.64
2022-08-16T02:43:07.244Z,24.59
2022-08-16T02:44:07.318Z,24.56
2022-08-16T02:45:07.487Z,24.55
2022-08-16T02:46:07.559Z,24.55
2022-08-16T02:47:07.268Z,24.50
2022-08-16T02:48:30.583Z,24.48
2022-08-16T02:49:07.151Z,24.47
2022-08-16T02:50:54.953Z,24.45
2022-08-16T02:51:10.811Z,24.47
2022-08-16T02:52:09.111Z,24.49
2022-08-16T02:53:06.852Z,24.50
2022-08-16T02:54:08.343Z,24.50
2022-08-16T02:55:07.450Z,24.53
2022-08-16T02:56:09.845Z,24.54
2022-08-16T02:57:07.248Z,24.54
2022-08-16T02:58:07.454Z,24.54
2022-08-16T02:59:11.371Z,24.57
2022-08-16T03:00:34.594Z,24.57
2022-08-16T03:01:07.199Z,24.61
2022-08-16T03:02:08.072Z,24.61
2022-08-16T03:03:10.552Z,24.60
2022-08-16T03:04:49.527Z,24.63
2022-08-16T03:05:07.002Z,24.64
2022-08-16T03:06:38.918Z,24.63
2022-08-16T03:07:07.428Z,24.66
2022-08-16T03:08:07.390Z,24.66
2022-08-16T03:09:10.694Z,24.68
2022-08-16T03:10:07.668Z,24.67
2022-08-16T03:11:16.693Z,24.69
2022-08-16T03:12:07.184Z,24.68
2022-08-16T03:13:11.463Z,24.69
2022-08-16T03:14:07.623Z,24.68
2022-08-16T03:15:06.959Z,24.68
2022-08-16T03:16:07.565Z,24.69
2022-08-16T03:17:06.054Z,24.64
2022-08-16T03:18:12.628Z,24.62
2022-08-16T03:19:07.632Z,24.54
2022-08-16T03:20:06.857Z,24.48
2022-08-16T03:21:09.998Z,24.44
2022-08-16T03:22:07.134Z,24.41
2022-08-16T03:23:07.071Z,24.36
2022-08-16T03:24:29.106Z,24.30
2022-08-16T03:25:07.343Z,24.27
2022-08-16T03:26:07.084Z,24.25
2022-08-16T03:27:07.776Z,24.19
2022-08-16T03:28:07.604Z,24.15
2022-08-16T03:29:07.119Z,24.15
2022-08-16T03:30:16.611Z,24.15
2022-08-16T03:31:07.040Z,24.16
2022-08-16T03:32:07.019Z,24.18
2022-08-16T03:33:08.104Z,24.19
2022-08-16T03:34:07.570Z,24.20
2022-08-16T03:35:07.176Z,24.18
2022-08-16T03:36:30.050Z,24.13
2022-08-16T03:37:06.743Z,24.09
2022-08-16T03:38:32.885Z,24.06
2022-08-16T03:39:14.954Z,24.05
2022-08-16T03:40:07.358Z,24.04
2022-08-16T03:41:24.255Z,24.02
2022-08-16T03:42:07.484Z,23.97
2022-08-16T03:43:20.459Z,23.98
2022-08-16T03:44:07.201Z,23.96
2022-08-16T03:45:07.495Z,23.95
2022-08-16T03:46:06.988Z,23.95
2022-08-16T03:47:10.081Z,23.96
2022-08-16T03:48:07.317Z,23.95
2022-08-16T03:49:07.027Z,23.94
2022-08-16T03:50:26.261Z,23.94
2022-08-16T03:51:06.932Z,23.93
2022-08-16T03:52:06.850Z,23.93
2022-08-16T03:53:07.210Z,23.91
2022-08-16T03:54:12.406Z,23.91
2022-08-16T03:55:14.705Z,23.90
2022-08-16T03:56:06.812Z,23.87
2022-08-16T03:57:16.458Z,23.88
2022-08-16T03:58:07.240Z,23.87
2022-08-16T03:59:06.999Z,23.86
2022-08-16T04:00:07.679Z,23.87
2022-08-16T04:01:07.438Z,23.85
2022-08-16T04:02:19.087Z,23.84
2022-08-16T04:03:08.612Z,23.82
2022-08-16T04:04:07.292Z,23.79
2022-08-16T04:05:07.075Z,23.77
2022-08-16T04:06:06.952Z,23.72
2022-08-16T04:07:07.174Z,23.69
2022-08-16T04:08:23.851Z,23.66
2022-08-16T04:09:07.364Z,23.64
2022-08-16T04:10:36.036Z,23.62
2022-08-16T04:11:07.289Z,23.61
2022-08-16T04:12:10.928Z,23.60
2022-08-16T04:13:20.219Z,23.61
2022-08-16T04:14:31.060Z,23.60
2022-08-16T04:15:07.932Z,23.60
2022-08-16T04:16:07.459Z,23.61
2022-08-16T04:17:06.968Z,23.61
2022-08-16T04:18:07.265Z,23.62
2022-08-16T04:19:07.548Z,23.65
2022-08-16T04:20:07.525Z,23.63
2022-08-16T04:21:06.934Z,23.64
2022-08-16T04:22:08.875Z,23.62
2022-08-16T04:23:26.124Z,23.63
2022-08-16T04:24:07.920Z,23.61
2022-08-16T04:25:07.735Z,23.60
2022-08-16T04:26:06.995Z,23.58
2022-08-16T04:27:09.089Z,23.57
2022-08-16T04:28:51.582Z,23.55
2022-08-16T04:29:15.165Z,23.53
2022-08-16T04:30:10.950Z,23.52
2022-08-16T04:31:10.735Z,23.52
2022-08-16T04:32:07.799Z,23.5
2022-08-16T04:33:07.158Z,23.46
2022-08-16T04:34:07.130Z,23.45
2022-08-16T04:35:12.352Z,23.44
2022-08-16T04:36:07.199Z,23.42
2022-08-16T04:37:06.954Z,23.43
2022-08-16T04:38:10.635Z,23.43
2022-08-16T04:39:07.779Z,23.42
2022-08-16T04:40:07.703Z,23.43
2022-08-16T04:41:07.588Z,23.43
2022-08-16T04:42:11.012Z,23.43
2022-08-16T04:43:07.796Z,23.38
2022-08-16T04:44:32.510Z,23.37
2022-08-16T04:45:07.541Z,23.36
2022-08-16T04:46:26.545Z,23.35
2022-08-16T04:47:21.612Z,23.37
2022-08-16T04:48:07.366Z,23.36
2022-08-16T04:49:07.429Z,23.30
2022-08-16T04:50:07.796Z,23.32
2022-08-16T04:51:11.760Z,23.30
2022-08-16T04:52:07.309Z,23.30
2022-08-16T04:53:07.730Z,23.29
2022-08-16T04:54:06.842Z,23.28
2022-08-16T04:55:07.410Z,23.27
2022-08-16T04:56:11.086Z,23.31
2022-08-16T04:57:07.416Z,23.32
2022-08-16T04:58:43.611Z,23.34
2022-08-16T04:59:07.711Z,23.33
2022-08-16T05:00:32.058Z,23.32
2022-08-16T05:01:07.962Z,23.32
2022-08-16T05:02:42.107Z,23.32
2022-08-16T05:03:08.367Z,23.31
2022-08-16T05:04:19.862Z,23.32
2022-08-16T05:05:07.132Z,23.32
2022-08-16T05:06:09.364Z,23.33
2022-08-16T05:07:09.983Z,23.34
2022-08-16T05:08:29.232Z,23.37
2022-08-16T05:09:07.521Z,23.37
2022-08-16T05:10:19.899Z,23.37
2022-08-16T05:11:08.216Z,23.38
2022-08-16T05:12:07.353Z,23.42
2022-08-16T05:13:07.091Z,23.45
2022-08-16T05:14:07.792Z,23.5
2022-08-16T05:15:07.305Z,23.54
2022-08-16T05:16:06.976Z,23.59
2022-08-16T05:17:07.710Z,23.62
2022-08-16T05:18:07.145Z,23.62
2022-08-16T05:19:11.542Z,23.63
2022-08-16T05:20:38.694Z,23.62
2022-08-16T05:21:11.081Z,23.64
2022-08-16T05:22:07.279Z,23.67
2022-08-16T05:23:09.812Z,23.73
2022-08-16T05:24:07.361Z,23.79
2022-08-16T05:25:09.167Z,23.85
2022-08-16T05:26:19.591Z,23.87
2022-08-16T05:27:11.349Z,23.90
2022-08-16T05:28:07.623Z,23.93
2022-08-16T05:29:07.547Z,23.94
2022-08-16T05:30:35.275Z,23.95
2022-08-16T05:31:07.233Z,23.95
2022-08-16T05:32:32.524Z,23.96
2022-08-16T05:33:08.910Z,23.96
2022-08-16T05:34:19.515Z,23.98
2022-08-16T05:35:07.544Z,24.03
2022-08-16T05:36:14.259Z,24.01
2022-08-16T05:37:07.021Z,24.01
2022-08-16T05:38:32.641Z,24.05
2022-08-16T05:39:08.875Z,24.05
2022-08-16T05:40:06.975Z,24.08
2022-08-16T05:41:07.001Z,24.09
2022-08-16T05:42:07.145Z,24.14
2022-08-16T05:43:07.372Z,24.17
2022-08-16T05:44:23.102Z,24.16
2022-08-16T05:45:07.469Z,24.19
2022-08-16T05:46:29.580Z,24.23
2022-08-16T05:47:07.548Z,24.26
2022-08-16T05:48:07.480Z,24.24
2022-08-16T05:49:09.355Z,24.26
2022-08-16T05:50:07.380Z,24.29
2022-08-16T05:51:07.668Z,24.29
2022-08-16T05:52:10.842Z,24.29
2022-08-16T05:53:07.742Z,24.28
2022-08-16T05:54:07.603Z,24.26
2022-08-16T05:55:07.780Z,24.25
2022-08-16T05:56:07.631Z,24.24
2022-08-16T05:57:07.685Z,24.28
2022-08-16T05:58:06.853Z,24.29
2022-08-16T05:59:07.529Z,24.33
2022-08-16T06:00:09.297Z,24.39
2022-08-16T06:01:07.322Z,24.44
2022-08-16T06:02:07.619Z,24.43
2022-08-16T06:03:07.116Z,24.42
2022-08-16T06:04:12.748Z,24.39
2022-08-16T06:05:07.622Z,24.42
2022-08-16T06:06:08.509Z,24.42
2022-08-16T06:07:09.166Z,24.42
2022-08-16T06:08:07.135Z,24.43
2022-08-16T06:09:07.666Z,24.44
2022-08-16T06:10:07.837Z,24.45
2022-08-16T06:11:11.018Z,24.43
2022-08-16T06:12:07.484Z,24.45
2022-08-16T06:13:07.301Z,24.5
2022-08-16T06:14:07.526Z,24.51
2022-08-16T06:15:09.638Z,24.56
2022-08-16T06:16:07.622Z,24.64
2022-08-16T06:17:07.467Z,24.70
2022-08-16T06:18:07.190Z,24.75
2022-08-16T06:19:07.273Z,24.79
2022-08-16T06:20:07.511Z,24.85
2022-08-16T06:21:07.171Z,24.91
2022-08-16T06:22:07.686Z,24.95
2022-08-16T06:23:16.785Z,25.01
2022-08-16T06:24:55.235Z,25.04
2022-08-16T06:25:06.934Z,25.10
2022-08-16T06:26:07.947Z,25.13
2022-08-16T06:27:07.533Z,25.17
2022-08-16T06:28:08.868Z,25.20
2022-08-16T06:29:07.849Z,25.24
2022-08-16T06:30:07.282Z,25.24
2022-08-16T06:31:07.357Z,25.21
2022-08-16T06:32:07.232Z,25.19
2022-08-16T06:33:07.571Z,25.21
2022-08-16T06:34:54.218Z,25.23
2022-08-16T06:35:07.403Z,25.26
2022-08-16T06:36:07.077Z,25.28
2022-08-16T06:37:07.527Z,25.31
2022-08-16T06:38:07.005Z,25.32
2022-08-16T06:39:07.649Z,25.38
2022-08-16T06:40:12.497Z,25.38
2022-08-16T06:41:13.488Z,25.43
2022-08-16T06:42:07.603Z,25.48
2022-08-16T06:43:07.345Z,25.54
2022-08-16T06:44:07.207Z,25.61
2022-08-16T06:45:07.170Z,25.67
2022-08-16T06:46:09.791Z,25.70
2022-08-16T06:47:07.468Z,25.76
2022-08-16T06:48:07.878Z,25.81
2022-08-16T06:49:07.625Z,25.86
2022-08-16T06:50:07.194Z,25.90
2022-08-16T06:51:07.217Z,25.92
2022-08-16T06:52:07.713Z,25.95
2022-08-16T06:53:08.902Z,25.98
2022-08-16T06:54:07.382Z,26.05
2022-08-16T06:55:07.870Z,26.09
2022-08-16T06:56:14.435Z,26.12
2022-08-16T06:57:11.629Z,26.15
2022-08-16T06:58:08.480Z,26.17
2022-08-16T06:59:08.876Z,26.20
2022-08-16T07:00:12.995Z,26.22
2022-08-16T07:01:09.955Z,26.26
2022-08-16T07:02:07.814Z,26.29
2022-08-16T07:03:26.873Z,26.30
2022-08-16T07:04:12.106Z,26.33
2022-08-16T07:05:14.956Z,26.34
2022-08-16T07:06:07.416Z,26.36
2022-08-16T07:07:09.507Z,26.37
2022-08-16T07:08:07.273Z,26.40
2022-08-16T07:09:09.406Z,26.44
2022-08-16T07:10:08.841Z,26.47
2022-08-16T07:11:07.779Z,26.48
2022-08-16T07:12:07.207Z,26.50
2022-08-16T07:13:12.749Z,26.53
2022-08-16T07:14:25.363Z,26.52
2022-08-16T07:15:08.522Z,26.56
2022-08-16T07:16:07.316Z,26.63
2022-08-16T07:17:08.036Z,26.67
2022-08-16T07:18:07.609Z,26.71
2022-08-16T07:19:07.545Z,26.77
2022-08-16T07:20:35.017Z,26.80
2022-08-16T07:21:07.303Z,26.83
2022-08-16T07:22:07.541Z,26.86
2022-08-16T07:23:13.338Z,26.92
2022-08-16T07:24:07.263Z,26.96
2022-08-16T07:25:07.599Z,27.01
2022-08-16T07:26:06.811Z,27.05
2022-08-16T07:27:08.364Z,27.08
2022-08-16T07:28:09.367Z,27.15
2022-08-16T07:29:07.255Z,27.25
2022-08-16T07:30:39.342Z,27.32
2022-08-16T07:31:13.040Z,27.31
2022-08-16T07:32:07.625Z,27.34
2022-08-16T07:33:07.441Z,27.35
2022-08-16T07:34:10.187Z,27.38
2022-08-16T07:35:07.690Z,27.38
2022-08-16T07:36:07.261Z,27.43
2022-08-16T07:37:07.504Z,27.5
2022-08-16T07:38:07.006Z,27.57
2022-08-16T07:39:07.485Z,27.62
2022-08-16T07:40:11.301Z,27.67
2022-08-16T07:41:09.557Z,27.70
2022-08-16T07:42:07.565Z,27.70
2022-08-16T07:43:07.594Z,27.76
2022-08-16T07:44:16.216Z,27.84
2022-08-16T07:45:10.392Z,27.90
2022-08-16T07:46:07.058Z,27.93
2022-08-16T07:47:07.297Z,28
2022-08-16T07:48:11.162Z,28.05
2022-08-16T07:49:11.325Z,28.13
2022-08-16T07:50:07.819Z,28.20
2022-08-16T07:51:09.244Z,28.22
2022-08-16T07:52:20.212Z,28.23
2022-08-16T07:53:06.988Z,28.25
2022-08-16T07:54:09.322Z,28.29
2022-08-16T07:55:07.637Z,28.37
2022-08-16T07:56:07.753Z,28.45
2022-08-16T07:57:07.143Z,28.51
2022-08-16T07:58:07.081Z,28.51
2022-08-16T07:59:07.155Z,28.53
2022-08-16T08:00:07.625Z,28.51
2022-08-16T08:01:10.525Z,28.51
2022-08-16T08:02:12.011Z,28.49
2022-08-16T08:03:07.499Z,28.48
2022-08-16T08:04:07.172Z,28.44
2022-08-16T08:05:07.310Z,28.44
2022-08-16T08:06:06.773Z,28.45
2022-08-16T08:07:08.926Z,28.50
2022-08-16T08:08:11.439Z,28.55
2022-08-16T08:09:07.453Z,28.59
2022-08-16T08:10:10.913Z,28.67
2022-08-16T08:11:09.271Z,28.72
2022-08-16T08:12:07.220Z,28.72
2022-08-16T08:13:07.696Z,28.80
2022-08-16T08:14:07.360Z,28.85
2022-08-16T08:15:09.518Z,28.86
2022-08-16T08:16:07.215Z,28.86
2022-08-16T08:17:08.642Z,28.87
2022-08-16T08:18:30.201Z,28.86
2022-08-16T08:19:07.005Z,28.87
2022-08-16T08:20:07.668Z,28.88
2022-08-16T08:21:07.406Z,28.87
2022-08-16T08:22:07.268Z,28.88
2022-08-16T08:23:07.619Z,28.90
2022-08-16T08:24:09.453Z,28.93
2022-08-16T08:25:07.251Z,28.94
2022-08-16T08:26:09.630Z,28.94
2022-08-16T08:27:07.585Z,28.95
2022-08-16T08:28:08.046Z,28.98
2022-08-16T08:29:08.511Z,29.01
2022-08-16T08:30:48.863Z,29.04
2022-08-16T08:31:07.779Z,29.01
2022-08-16T08:32:49.079Z,28.96
2022-08-16T08:33:08.952Z,28.93
2022-08-16T08:34:07.466Z,28.93
2022-08-16T08:35:07.985Z,28.96
2022-08-16T08:36:06.975Z,28.96
2022-08-16T08:37:07.093Z,28.96
2022-08-16T08:38:07.147Z,28.98
2022-08-16T08:39:13.245Z,29.02
2022-08-16T08:40:07.889Z,29.05
2022-08-16T08:41:07.094Z,29.06
2022-08-16T08:42:07.483Z,29.10
2022-08-16T08:43:11.751Z,29.11
2022-08-16T08:44:29.449Z,29.18
2022-08-16T08:45:07.854Z,29.21
2022-08-16T08:46:17.754Z,29.26
2022-08-16T08:47:10.947Z,29.29
2022-08-16T08:48:07.522Z,29.30
2022-08-16T08:49:07.292Z,29.34
2022-08-16T08:50:07.677Z,29.41
2022-08-16T08:51:09.564Z,29.45
2022-08-16T08:52:08.095Z,29.44
2022-08-16T08:53:07.363Z,29.43
2022-08-16T08:54:09.163Z,29.44
2022-08-16T08:55:10.248Z,29.44
2022-08-16T08:56:23.433Z,29.44
2022-08-16T08:57:07.176Z,29.50
2022-08-16T08:58:06.966Z,29.54
2022-08-16T08:59:13.282Z,29.57
2022-08-16T09:00:13.438Z,29.59
2022-08-16T09:01:07.437Z,29.62
2022-08-16T09:02:07.397Z,29.63
2022-08-16T09:03:07.990Z,29.62
2022-08-16T09:04:07.241Z,29.59
2022-08-16T09:05:15.412Z,29.60
2022-08-16T09:06:07.081Z,29.59
2022-08-16T09:07:07.190Z,29.58
2022-08-16T09:08:07.134Z,29.60
2022-08-16T09:09:07.440Z,29.61
2022-08-16T09:10:20.652Z,29.65
2022-08-16T09:11:07.465Z,29.68
2022-08-16T09:12:07.618Z,29.75
2022-08-16T09:13:08.004Z,29.88
2022-08-16T09:14:07.253Z,29.89
2022-08-16T09:15:07.739Z,29.89
2022-08-16T09:16:10.213Z,29.93
2022-08-16T09:17:11.381Z,29.97
2022-08-16T09:18:25.129Z,30.02
2022-08-16T09:20:07.767Z,30.07
2022-08-16T09:21:06.903Z,30.14
2022-08-16T09:22:07.352Z,30.21
2022-08-16T09:23:07.306Z,30.27
2022-08-16T09:24:10.106Z,30.30
2022-08-16T09:25:10.073Z,30.33
2022-08-16T09:26:45.548Z,30.37
2022-08-16T09:27:07.429Z,30.39
2022-08-16T09:28:09.231Z,30.45
2022-08-16T09:29:15.579Z,30.49
2022-08-16T09:30:33.711Z,30.53
2022-08-16T09:31:07.184Z,30.54
2022-08-16T09:32:07.956Z,30.54
2022-08-16T09:33:07.701Z,30.51
2022-08-16T09:34:07.577Z,30.5
2022-08-16T09:35:07.115Z,30.5
2022-08-16T09:36:07.104Z,30.51
2022-08-16T09:37:17.525Z,30.54
2022-08-16T09:38:09.726Z,30.57
2022-08-16T09:39:07.359Z,30.61
2022-08-16T09:40:31.657Z,30.62
2022-08-16T09:41:14.619Z,30.57
2022-08-16T09:42:07.307Z,30.54
2022-08-16T09:43:07.618Z,30.52
2022-08-16T09:45:11.325Z,30.63
2022-08-16T09:45:11.655Z,30.54
2022-08-16T09:46:45.544Z,30.60
2022-08-16T09:47:10.270Z,30.57
2022-08-16T09:48:07.022Z,30.56
2022-08-16T09:49:08.490Z,30.52
2022-08-16T09:50:11.784Z,30.52
2022-08-16T09:51:06.886Z,30.52
2022-08-16T09:52:07.230Z,30.54
2022-08-16T09:53:07.325Z,30.55
2022-08-16T09:54:09.632Z,30.57
2022-08-16T09:55:07.624Z,30.60
2022-08-16T09:56:11.359Z,30.63
2022-08-16T09:57:07.546Z,30.70
2022-08-16T09:58:07.272Z,30.76
2022-08-16T09:59:08.069Z,30.83
2022-08-16T10:00:42.514Z,30.87
2022-08-16T10:01:08.399Z,30.90
2022-08-16T10:02:26.439Z,30.95
2022-08-16T10:03:10.045Z,31
2022-08-16T10:04:29.821Z,31.04
2022-08-16T10:05:07.828Z,31.13
2022-08-16T10:06:07.802Z,31.20
2022-08-16T10:07:15.303Z,31.26
2022-08-16T10:08:26.550Z,31.29
2022-08-16T10:09:08.297Z,31.32
2022-08-16T10:10:11.567Z,31.29
2022-08-16T10:11:07.091Z,31.29
2022-08-16T10:12:11.357Z,31.29
2022-08-16T10:13:06.840Z,31.27
2022-08-16T10:14:07.490Z,31.25
2022-08-16T10:15:07.546Z,31.25
2022-08-16T10:16:07.214Z,31.29
2022-08-16T10:17:07.177Z,31.35
2022-08-16T10:18:56.786Z,31.35
2022-08-16T10:19:09.042Z,31.35
2022-08-16T10:20:07.353Z,31.36
2022-08-16T10:21:07.288Z,31.34
2022-08-16T10:22:07.379Z,31.36
2022-08-16T10:23:08.356Z,31.39
2022-08-16T10:24:07.263Z,31.41
2022-08-16T10:25:07.474Z,31.43
2022-08-16T10:27:18.066Z,31.47
2022-08-16T10:27:26.589Z,31.49
2022-08-16T10:28:27.649Z,31.51
2022-08-16T10:29:07.429Z,31.58
2022-08-16T10:30:25.873Z,31.64
2022-08-16T10:31:07.053Z,31.70
2022-08-16T10:32:07.382Z,31.76
2022-08-16T10:33:07.133Z,31.86
2022-08-16T10:34:30.664Z,31.87
2022-08-16T10:35:07.442Z,31.90
2022-08-16T10:36:07.517Z,31.96
2022-08-16T10:37:08.151Z,32.04
2022-08-16T10:38:09.635Z,32.08
2022-08-16T10:39:08.496Z,32.11
2022-08-16T10:40:28.455Z,32.16
2022-08-16T10:41:07.398Z,32.21
2022-08-16T10:42:07.444Z,32.29
2022-08-16T10:43:08.384Z,32.37
2022-08-16T10:44:09.486Z,32.40
2022-08-16T10:45:07.615Z,32.47
2022-08-16T10:46:40.028Z,32.52
2022-08-16T10:47:07.039Z,32.59
2022-08-16T10:48:27.881Z,32.64
2022-08-16T10:49:07.594Z,32.70
2022-08-16T10:50:07.602Z,32.77
2022-08-16T10:51:07.274Z,32.82
2022-08-16T10:52:19.124Z,32.87
2022-08-16T10:53:07.775Z,32.92
2022-08-16T10:54:07.288Z,32.94
2022-08-16T10:55:40.384Z,32.97
2022-08-16T10:56:52.699Z,32.95
2022-08-16T10:57:06.643Z,32.94
2022-08-16T10:58:11.693Z,32.96
2022-08-16T10:59:44.945Z,32.97
2022-08-16T11:00:21.414Z,32.98
2022-08-16T11:01:43.639Z,32.91
2022-08-16T11:02:57.607Z,32.84
2022-08-16T11:03:42.954Z,32.83
2022-08-16T11:05:04.781Z,32.80
2022-08-16T11:05:09.547Z,32.81
2022-08-16T11:06:12.020Z,32.86
2022-08-16T11:07:07.884Z,32.85
2022-08-16T11:08:07.728Z,32.90
2022-08-16T11:09:25.222Z,32.90
2022-08-16T11:10:59.135Z,32.91
2022-08-16T11:11:12.843Z,32.93
2022-08-16T11:12:13.662Z,32.94
2022-08-16T11:14:11.691Z,33.02
2022-08-16T11:15:17.196Z,33.05
2022-08-16T11:16:26.875Z,33.08
2022-08-16T11:17:10.896Z,33.11
2022-08-16T11:19:03.839Z,33.18
2022-08-16T11:19:12.469Z,33.18
2022-08-16T11:21:07.260Z,33.18
2022-08-16T11:22:38.968Z,33.18
2022-08-16T11:23:07.093Z,33.18
2022-08-16T11:24:39.734Z,33.18
2022-08-16T11:25:59.607Z,33.17
2022-08-16T11:26:16.389Z,33.17
2022-08-16T11:27:26.949Z,33.16
2022-08-16T11:28:07.325Z,33.17
2022-08-16T11:29:14.949Z,33.15
2022-08-16T11:30:08.986Z,33.14
2022-08-16T11:31:06.870Z,33.11
2022-08-16T11:32:07.690Z,33.08
2022-08-16T11:33:07.150Z,33.06
2022-08-16T11:34:08.099Z,33.02
2022-08-16T11:35:11.223Z,32.99
2022-08-16T11:36:25.003Z,33.00
2022-08-16T11:37:07.747Z,33.00
2022-08-16T11:38:47.038Z,33.04
2022-08-16T11:39:07.339Z,33.09
2022-08-16T11:40:06.959Z,33.12
2022-08-16T11:41:07.582Z,33.17
2022-08-16T11:42:23.216Z,33.24
2022-08-16T11:43:07.651Z,33.27
2022-08-16T11:44:07.120Z,33.34
2022-08-16T11:45:07.073Z,33.40
2022-08-16T11:46:42.949Z,33.45
2022-08-16T11:47:07.565Z,33.5
2022-08-16T11:48:07.222Z,33.53
2022-08-16T11:49:12.737Z,33.59
2022-08-16T11:50:07.877Z,33.63
2022-08-16T11:51:07.086Z,33.66
2022-08-16T11:52:07.111Z,33.69
2022-08-16T11:53:08.359Z,33.72
2022-08-16T11:54:08.923Z,33.77
2022-08-16T11:55:07.342Z,33.83
2022-08-16T11:56:07.438Z,33.90
2022-08-16T11:57:08.917Z,33.93
2022-08-16T11:58:07.200Z,33.98
2022-08-16T11:59:07.200Z,34.04
2022-08-16T12:00:08.277Z,34.13
2022-08-16T12:01:06.917Z,34.20
2022-08-16T12:02:31.658Z,34.29
2022-08-16T12:03:07.795Z,34.37
2022-08-16T12:04:07.071Z,34.41
2022-08-16T12:05:07.377Z,34.44
2022-08-16T12:06:07.657Z,34.48
2022-08-16T12:07:07.429Z,34.5
2022-08-16T12:08:07.009Z,34.54
2022-08-16T12:09:07.511Z,34.62
2022-08-16T12:10:07.028Z,34.63
2022-08-16T12:11:07.566Z,34.71
2022-08-16T12:12:06.969Z,34.75
2022-08-16T12:13:07.604Z,34.81
2022-08-16T12:14:07.530Z,34.87
2022-08-16T12:15:07.292Z,34.91
2022-08-16T12:16:07.208Z,34.93
2022-08-16T12:17:08.278Z,34.93
2022-08-16T12:18:07.486Z,34.97
2022-08-16T12:19:10.560Z,35.01
2022-08-16T12:20:07.625Z,35.08
2022-08-16T12:21:07.440Z,35.15
2022-08-16T12:22:19.108Z,35.16
2022-08-16T12:23:07.162Z,35.14
2022-08-16T12:24:07.559Z,35.09
2022-08-16T12:25:06.974Z,35.08
2022-08-16T12:26:10.355Z,35.06
2022-08-16T12:27:08.316Z,35.06
2022-08-16T12:28:07.646Z,35.06
2022-08-16T12:29:07.283Z,35.09
2022-08-16T12:30:07.253Z,35.11
2022-08-16T12:31:07.071Z,35.16
2022-08-16T12:32:37.396Z,35.21
2022-08-16T12:33:07.601Z,35.24
2022-08-16T12:34:07.612Z,35.24
2022-08-16T12:35:07.554Z,35.23
2022-08-16T12:36:09.930Z,35.26
2022-08-16T12:37:11.657Z,35.30
2022-08-16T12:38:37.957Z,35.32
2022-08-16T12:39:07.285Z,35.40
2022-08-16T12:40:07.068Z,35.42
2022-08-16T12:41:08.152Z,35.47
2022-08-16T12:42:07.448Z,35.51
2022-08-16T12:43:07.382Z,35.52
2022-08-16T12:44:07.443Z,35.56
2022-08-16T12:45:08.201Z,35.61
2022-08-16T12:46:07.406Z,35.64
2022-08-16T12:47:07.320Z,35.69
2022-08-16T12:48:32.712Z,35.74
2022-08-16T12:49:06.968Z,35.77
2022-08-16T12:50:07.266Z,35.85
2022-08-16T12:51:13.511Z,35.91
2022-08-16T12:52:07.119Z,36
2022-08-16T12:53:06.887Z,36.06
2022-08-16T12:54:06.960Z,36.11
2022-08-16T12:55:07.367Z,36.17
2022-08-16T12:56:07.231Z,36.20